sensor_id;sensor_type;location;lat;lon;timestamp;P1;durP1;ratioP1;P2;durP2;ratioP2
4808;SDS011;2418;49.930;8.606;2023-06-10T00:01:39;10.45;;;9.40;;
4808;SDS011;2418;49.930;8.606;2023-06-10T00:04:05;11.00;;;10.07;;
4808;SDS011;2418;49.930;8.606;2023-06-10T00:06:31;10.40;;;9.50;;
4808;SDS011;2418;49.930;8.606;2023-06-10T00:09:06;10.25;;;9.40;;
4808;SDS011;2418;49.930;8.606;2023-06-10T00:11:35;12.40;;;10.27;;
4808;SDS011;2418;49.930;8.606;2023-06-10T00:14:01;11.00;;;10.00;;
4808;SDS011;2418;49.930;8.606;2023-06-10T00:16:27;10.50;;;9.40;;
4808;SDS011;2418;49.930;8.606;2023-06-10T00:18:53;13.30;;;11.00;;
4808;SDS011;2418;49.930;8.606;2023-06-10T00:21:26;11.15;;;9.95;;
4808;SDS011;2418;49.930;8.606;2023-06-10T00:23:52;11.60;;;10.60;;
4808;SDS011;2418;49.930;8.606;2023-06-10T00:26:18;12.30;;;11.00;;
4808;SDS011;2418;49.930;8.606;2023-06-10T00:28:45;13.15;;;10.98;;
4808;SDS011;2418;49.930;8.606;2023-06-10T00:31:11;9.57;;;8.93;;
4808;SDS011;2418;49.930;8.606;2023-06-10T00:33:37;9.77;;;9.10;;
4808;SDS011;2418;49.930;8.606;2023-06-10T00:36:03;11.70;;;10.70;;
4808;SDS011;2418;49.930;8.606;2023-06-10T00:38:29;11.82;;;10.73;;
4808;SDS011;2418;49.930;8.606;2023-06-10T00:40:55;12.90;;;11.50;;
4808;SDS011;2418;49.930;8.606;2023-06-10T00:43:21;11.60;;;10.53;;
4808;SDS011;2418;49.930;8.606;2023-06-10T00:45:49;11.00;;;10.20;;
4808;SDS011;2418;49.930;8.606;2023-06-10T00:48:17;12.90;;;10.93;;
4808;SDS011;2418;49.930;8.606;2023-06-10T00:50:43;14.40;;;10.52;;
4808;SDS011;2418;49.930;8.606;2023-06-10T00:53:09;11.85;;;10.75;;
4808;SDS011;2418;49.930;8.606;2023-06-10T00:55:35;11.10;;;10.20;;
4808;SDS011;2418;49.930;8.606;2023-06-10T00:58:02;12.45;;;10.32;;
4808;SDS011;2418;49.930;8.606;2023-06-10T01:00:29;12.50;;;11.30;;
4808;SDS011;2418;49.930;8.606;2023-06-10T01:02:55;10.75;;;10.05;;
4808;SDS011;2418;49.930;8.606;2023-06-10T01:05:21;11.00;;;10.10;;
4808;SDS011;2418;49.930;8.606;2023-06-10T01:08:01;12.00;;;10.65;;
4808;SDS011;2418;49.930;8.606;2023-06-10T01:13:23;11.98;;;10.75;;
4808;SDS011;2418;49.930;8.606;2023-06-10T01:15:54;11.82;;;10.60;;
4808;SDS011;2418;49.930;8.606;2023-06-10T01:18:21;10.90;;;10.10;;
4808;SDS011;2418;49.930;8.606;2023-06-10T01:20:46;11.30;;;10.50;;
4808;SDS011;2418;49.930;8.606;2023-06-10T01:23:13;11.85;;;10.60;;
4808;SDS011;2418;49.930;8.606;2023-06-10T01:25:41;15.60;;;11.20;;
4808;SDS011;2418;49.930;8.606;2023-06-10T01:28:14;14.23;;;11.10;;
4808;SDS011;2418;49.930;8.606;2023-06-10T01:33:37;11.85;;;10.82;;
4808;SDS011;2418;49.930;8.606;2023-06-10T01:36:04;13.60;;;11.70;;
4808;SDS011;2418;49.930;8.606;2023-06-10T01:38:31;12.13;;;11.02;;
4808;SDS011;2418;49.930;8.606;2023-06-10T01:40:58;12.70;;;11.60;;
4808;SDS011;2418;49.930;8.606;2023-06-10T01:43:24;12.93;;;11.63;;
4808;SDS011;2418;49.930;8.606;2023-06-10T01:45:50;11.67;;;10.67;;
4808;SDS011;2418;49.930;8.606;2023-06-10T01:48:16;16.33;;;10.95;;
4808;SDS011;2418;49.930;8.606;2023-06-10T01:50:42;12.35;;;11.15;;
4808;SDS011;2418;49.930;8.606;2023-06-10T01:53:08;12.15;;;10.95;;
4808;SDS011;2418;49.930;8.606;2023-06-10T01:55:34;11.85;;;10.95;;
4808;SDS011;2418;49.930;8.606;2023-06-10T01:58:00;12.27;;;10.98;;
4808;SDS011;2418;49.930;8.606;2023-06-10T02:00:25;11.33;;;10.27;;
4808;SDS011;2418;49.930;8.606;2023-06-10T02:02:51;12.03;;;10.73;;
4808;SDS011;2418;49.930;8.606;2023-06-10T02:05:16;11.10;;;10.03;;
4808;SDS011;2418;49.930;8.606;2023-06-10T02:07:42;11.40;;;10.43;;
4808;SDS011;2418;49.930;8.606;2023-06-10T02:10:07;11.10;;;10.10;;
4808;SDS011;2418;49.930;8.606;2023-06-10T02:12:33;11.57;;;10.57;;
4808;SDS011;2418;49.930;8.606;2023-06-10T02:14:59;11.07;;;10.17;;
4808;SDS011;2418;49.930;8.606;2023-06-10T02:17:25;11.27;;;9.97;;
4808;SDS011;2418;49.930;8.606;2023-06-10T02:19:51;12.90;;;10.38;;
4808;SDS011;2418;49.930;8.606;2023-06-10T02:22:23;12.00;;;11.10;;
4808;SDS011;2418;49.930;8.606;2023-06-10T02:24:48;15.43;;;10.43;;
4808;SDS011;2418;49.930;8.606;2023-06-10T02:27:15;13.55;;;10.35;;
4808;SDS011;2418;49.930;8.606;2023-06-10T02:29:41;10.00;;;9.30;;
4808;SDS011;2418;49.930;8.606;2023-06-10T02:32:07;11.35;;;10.38;;
4808;SDS011;2418;49.930;8.606;2023-06-10T02:34:33;11.80;;;10.60;;
4808;SDS011;2418;49.930;8.606;2023-06-10T02:36:59;11.93;;;10.73;;
4808;SDS011;2418;49.930;8.606;2023-06-10T02:39:25;12.35;;;10.48;;
4808;SDS011;2418;49.930;8.606;2023-06-10T02:41:52;11.77;;;10.57;;
4808;SDS011;2418;49.930;8.606;2023-06-10T02:44:18;14.02;;;10.90;;
4808;SDS011;2418;49.930;8.606;2023-06-10T02:46:43;11.88;;;10.77;;
4808;SDS011;2418;49.930;8.606;2023-06-10T02:49:09;11.95;;;10.63;;
4808;SDS011;2418;49.930;8.606;2023-06-10T02:51:35;12.57;;;10.30;;
4808;SDS011;2418;49.930;8.606;2023-06-10T02:54:01;12.02;;;11.02;;
4808;SDS011;2418;49.930;8.606;2023-06-10T02:56:27;13.23;;;11.83;;
4808;SDS011;2418;49.930;8.606;2023-06-10T02:58:53;13.02;;;10.90;;
4808;SDS011;2418;49.930;8.606;2023-06-10T03:01:18;11.75;;;10.60;;
4808;SDS011;2418;49.930;8.606;2023-06-10T03:03:44;13.70;;;11.70;;
4808;SDS011;2418;49.930;8.606;2023-06-10T03:06:11;12.13;;;10.93;;
4808;SDS011;2418;49.930;8.606;2023-06-10T03:08:38;12.50;;;11.30;;
4808;SDS011;2418;49.930;8.606;2023-06-10T03:11:04;13.07;;;11.30;;
4808;SDS011;2418;49.930;8.606;2023-06-10T03:13:29;11.85;;;10.68;;
4808;SDS011;2418;49.930;8.606;2023-06-10T03:15:55;12.50;;;11.45;;
4808;SDS011;2418;49.930;8.606;2023-06-10T03:18:21;14.20;;;11.00;;
4808;SDS011;2418;49.930;8.606;2023-06-10T03:20:50;14.45;;;12.95;;
4808;SDS011;2418;49.930;8.606;2023-06-10T03:23:16;12.63;;;11.30;;
4808;SDS011;2418;49.930;8.606;2023-06-10T03:25:43;13.10;;;11.70;;
4808;SDS011;2418;49.930;8.606;2023-06-10T03:28:09;12.68;;;11.57;;
4808;SDS011;2418;49.930;8.606;2023-06-10T03:30:35;12.40;;;11.50;;
4808;SDS011;2418;49.930;8.606;2023-06-10T03:33:00;12.40;;;11.20;;
4808;SDS011;2418;49.930;8.606;2023-06-10T03:35:26;14.87;;;11.40;;
4808;SDS011;2418;49.930;8.606;2023-06-10T03:37:51;13.02;;;11.73;;
4808;SDS011;2418;49.930;8.606;2023-06-10T03:40:17;14.02;;;11.43;;
4808;SDS011;2418;49.930;8.606;2023-06-10T03:42:43;12.65;;;11.45;;
4808;SDS011;2418;49.930;8.606;2023-06-10T03:45:09;13.32;;;12.10;;
4808;SDS011;2418;49.930;8.606;2023-06-10T03:47:36;13.00;;;11.70;;
4808;SDS011;2418;49.930;8.606;2023-06-10T03:50:03;12.13;;;11.02;;
4808;SDS011;2418;49.930;8.606;2023-06-10T03:52:29;11.80;;;10.60;;
4808;SDS011;2418;49.930;8.606;2023-06-10T03:54:55;13.77;;;11.00;;
4808;SDS011;2418;49.930;8.606;2023-06-10T03:57:20;11.20;;;10.20;;
4808;SDS011;2418;49.930;8.606;2023-06-10T03:59:46;10.97;;;9.97;;
4808;SDS011;2418;49.930;8.606;2023-06-10T04:02:12;11.30;;;10.20;;
4808;SDS011;2418;49.930;8.606;2023-06-10T04:04:37;11.50;;;10.40;;
4808;SDS011;2418;49.930;8.606;2023-06-10T04:07:04;10.90;;;9.73;;
4808;SDS011;2418;49.930;8.606;2023-06-10T04:09:30;10.73;;;9.70;;
4808;SDS011;2418;49.930;8.606;2023-06-10T04:11:55;10.80;;;9.90;;
4808;SDS011;2418;49.930;8.606;2023-06-10T04:14:21;11.17;;;10.07;;
4808;SDS011;2418;49.930;8.606;2023-06-10T04:16:47;9.57;;;8.90;;
4808;SDS011;2418;49.930;8.606;2023-06-10T04:19:12;9.70;;;8.80;;
4808;SDS011;2418;49.930;8.606;2023-06-10T04:21:38;9.52;;;8.80;;
4808;SDS011;2418;49.930;8.606;2023-06-10T04:24:04;9.70;;;8.80;;
4808;SDS011;2418;49.930;8.606;2023-06-10T04:26:30;10.60;;;9.40;;
4808;SDS011;2418;49.930;8.606;2023-06-10T04:28:56;10.30;;;9.30;;
4808;SDS011;2418;49.930;8.606;2023-06-10T04:31:21;9.25;;;8.55;;
4808;SDS011;2418;49.930;8.606;2023-06-10T04:33:47;9.60;;;8.60;;
4808;SDS011;2418;49.930;8.606;2023-06-10T04:36:13;9.50;;;8.70;;
4808;SDS011;2418;49.930;8.606;2023-06-10T04:38:40;9.02;;;8.13;;
4808;SDS011;2418;49.930;8.606;2023-06-10T04:41:06;8.70;;;8.10;;
4808;SDS011;2418;49.930;8.606;2023-06-10T04:43:32;8.80;;;8.10;;
4808;SDS011;2418;49.930;8.606;2023-06-10T04:45:58;9.90;;;9.00;;
4808;SDS011;2418;49.930;8.606;2023-06-10T04:48:23;9.70;;;8.70;;
4808;SDS011;2418;49.930;8.606;2023-06-10T04:50:49;8.75;;;8.05;;
4808;SDS011;2418;49.930;8.606;2023-06-10T04:53:15;8.85;;;8.05;;
4808;SDS011;2418;49.930;8.606;2023-06-10T04:55:42;8.95;;;8.35;;
4808;SDS011;2418;49.930;8.606;2023-06-10T04:58:09;11.23;;;7.32;;
4808;SDS011;2418;49.930;8.606;2023-06-10T05:00:35;8.20;;;7.70;;
4808;SDS011;2418;49.930;8.606;2023-06-10T05:03:01;7.90;;;7.25;;
4808;SDS011;2418;49.930;8.606;2023-06-10T05:05:27;8.65;;;7.85;;
4808;SDS011;2418;49.930;8.606;2023-06-10T05:07:53;8.70;;;7.90;;
4808;SDS011;2418;49.930;8.606;2023-06-10T05:10:18;7.30;;;6.72;;
4808;SDS011;2418;49.930;8.606;2023-06-10T05:12:45;9.18;;;7.45;;
4808;SDS011;2418;49.930;8.606;2023-06-10T05:15:11;8.15;;;7.35;;
4808;SDS011;2418;49.930;8.606;2023-06-10T05:17:38;6.95;;;6.55;;
4808;SDS011;2418;49.930;8.606;2023-06-10T05:20:04;8.52;;;7.57;;
4808;SDS011;2418;49.930;8.606;2023-06-10T05:22:31;8.40;;;7.80;;
4808;SDS011;2418;49.930;8.606;2023-06-10T05:24:57;9.05;;;7.72;;
4808;SDS011;2418;49.930;8.606;2023-06-10T05:27:22;7.70;;;7.13;;
4808;SDS011;2418;49.930;8.606;2023-06-10T05:29:49;7.50;;;7.10;;
4808;SDS011;2418;49.930;8.606;2023-06-10T05:32:16;7.20;;;6.70;;
4808;SDS011;2418;49.930;8.606;2023-06-10T05:34:42;7.57;;;7.07;;
4808;SDS011;2418;49.930;8.606;2023-06-10T05:37:08;6.90;;;6.40;;
4808;SDS011;2418;49.930;8.606;2023-06-10T05:39:35;7.15;;;6.65;;
4808;SDS011;2418;49.930;8.606;2023-06-10T05:42:03;7.05;;;6.47;;
4808;SDS011;2418;49.930;8.606;2023-06-10T05:44:29;6.80;;;6.40;;
4808;SDS011;2418;49.930;8.606;2023-06-10T05:46:55;7.60;;;6.85;;
4808;SDS011;2418;49.930;8.606;2023-06-10T05:49:21;7.57;;;7.18;;
4808;SDS011;2418;49.930;8.606;2023-06-10T05:51:46;7.38;;;6.97;;
4808;SDS011;2418;49.930;8.606;2023-06-10T05:54:12;7.40;;;6.80;;
4808;SDS011;2418;49.930;8.606;2023-06-10T05:56:38;7.30;;;6.90;;
4808;SDS011;2418;49.930;8.606;2023-06-10T05:59:04;7.47;;;6.97;;
4808;SDS011;2418;49.930;8.606;2023-06-10T06:01:31;7.10;;;6.80;;
4808;SDS011;2418;49.930;8.606;2023-06-10T06:03:57;7.72;;;7.15;;
4808;SDS011;2418;49.930;8.606;2023-06-10T06:06:22;8.00;;;7.30;;
4808;SDS011;2418;49.930;8.606;2023-06-10T06:08:48;6.57;;;6.13;;
4808;SDS011;2418;49.930;8.606;2023-06-10T06:11:14;7.82;;;7.22;;
4808;SDS011;2418;49.930;8.606;2023-06-10T06:13:40;6.85;;;6.30;;
4808;SDS011;2418;49.930;8.606;2023-06-10T06:16:07;8.27;;;7.53;;
4808;SDS011;2418;49.930;8.606;2023-06-10T06:18:33;7.37;;;6.87;;
4808;SDS011;2418;49.930;8.606;2023-06-10T06:20:59;6.15;;;5.85;;
4808;SDS011;2418;49.930;8.606;2023-06-10T06:23:25;6.88;;;6.47;;
4808;SDS011;2418;49.930;8.606;2023-06-10T06:25:51;7.38;;;6.88;;
4808;SDS011;2418;49.930;8.606;2023-06-10T06:28:16;8.63;;;6.50;;
4808;SDS011;2418;49.930;8.606;2023-06-10T06:30:44;7.55;;;6.40;;
4808;SDS011;2418;49.930;8.606;2023-06-10T06:33:09;6.88;;;6.47;;
4808;SDS011;2418;49.930;8.606;2023-06-10T06:35:35;7.40;;;6.70;;
4808;SDS011;2418;49.930;8.606;2023-06-10T06:38:03;6.50;;;6.20;;
4808;SDS011;2418;49.930;8.606;2023-06-10T06:40:29;6.90;;;6.50;;
4808;SDS011;2418;49.930;8.606;2023-06-10T06:42:55;7.53;;;7.10;;
4808;SDS011;2418;49.930;8.606;2023-06-10T06:45:21;7.50;;;6.90;;
4808;SDS011;2418;49.930;8.606;2023-06-10T06:47:47;7.60;;;6.90;;
4808;SDS011;2418;49.930;8.606;2023-06-10T06:50:13;7.55;;;6.85;;
4808;SDS011;2418;49.930;8.606;2023-06-10T06:52:39;7.50;;;6.90;;
4808;SDS011;2418;49.930;8.606;2023-06-10T06:55:05;8.95;;;7.60;;
4808;SDS011;2418;49.930;8.606;2023-06-10T06:57:31;6.90;;;6.40;;
4808;SDS011;2418;49.930;8.606;2023-06-10T06:59:57;7.57;;;7.07;;
4808;SDS011;2418;49.930;8.606;2023-06-10T07:02:23;7.88;;;7.30;;
4808;SDS011;2418;49.930;8.606;2023-06-10T07:04:49;7.90;;;7.30;;
4808;SDS011;2418;49.930;8.606;2023-06-10T07:07:14;7.82;;;7.13;;
4808;SDS011;2418;49.930;8.606;2023-06-10T07:09:40;7.80;;;7.20;;
4808;SDS011;2418;49.930;8.606;2023-06-10T07:12:06;8.00;;;7.30;;
4808;SDS011;2418;49.930;8.606;2023-06-10T07:14:32;7.50;;;7.10;;
4808;SDS011;2418;49.930;8.606;2023-06-10T07:16:58;8.23;;;7.60;;
4808;SDS011;2418;49.930;8.606;2023-06-10T07:19:23;8.02;;;7.53;;
4808;SDS011;2418;49.930;8.606;2023-06-10T07:21:49;7.43;;;6.60;;
4808;SDS011;2418;49.930;8.606;2023-06-10T07:24:16;8.00;;;7.28;;
4808;SDS011;2418;49.930;8.606;2023-06-10T07:26:42;7.77;;;7.17;;
4808;SDS011;2418;49.930;8.606;2023-06-10T07:29:08;6.90;;;6.50;;
4808;SDS011;2418;49.930;8.606;2023-06-10T07:31:34;7.30;;;6.90;;
4808;SDS011;2418;49.930;8.606;2023-06-10T07:34:00;8.23;;;7.43;;
4808;SDS011;2418;49.930;8.606;2023-06-10T07:36:25;7.60;;;7.10;;
4808;SDS011;2418;49.930;8.606;2023-06-10T07:38:53;7.82;;;7.22;;
4808;SDS011;2418;49.930;8.606;2023-06-10T07:41:20;7.78;;;7.07;;
4808;SDS011;2418;49.930;8.606;2023-06-10T07:43:46;7.78;;;7.20;;
4808;SDS011;2418;49.930;8.606;2023-06-10T07:46:12;9.43;;;7.70;;
4808;SDS011;2418;49.930;8.606;2023-06-10T07:48:38;8.10;;;7.30;;
4808;SDS011;2418;49.930;8.606;2023-06-10T07:51:04;7.38;;;6.88;;
4808;SDS011;2418;49.930;8.606;2023-06-10T07:53:30;8.52;;;7.70;;
4808;SDS011;2418;49.930;8.606;2023-06-10T07:55:56;7.50;;;7.05;;
4808;SDS011;2418;49.930;8.606;2023-06-10T07:58:22;8.43;;;7.82;;
4808;SDS011;2418;49.930;8.606;2023-06-10T08:00:48;8.50;;;7.70;;
4808;SDS011;2418;49.930;8.606;2023-06-10T08:03:14;8.10;;;7.50;;
4808;SDS011;2418;49.930;8.606;2023-06-10T08:05:39;8.77;;;7.50;;
4808;SDS011;2418;49.930;8.606;2023-06-10T08:08:06;9.18;;;7.25;;
4808;SDS011;2418;49.930;8.606;2023-06-10T08:10:38;7.38;;;6.97;;
4808;SDS011;2418;49.930;8.606;2023-06-10T08:13:04;7.77;;;7.27;;
4808;SDS011;2418;49.930;8.606;2023-06-10T08:15:30;8.00;;;7.30;;
4808;SDS011;2418;49.930;8.606;2023-06-10T08:17:56;7.55;;;6.95;;
4808;SDS011;2418;49.930;8.606;2023-06-10T08:20:22;7.70;;;7.30;;
4808;SDS011;2418;49.930;8.606;2023-06-10T08:22:48;9.23;;;8.50;;
4808;SDS011;2418;49.930;8.606;2023-06-10T08:25:14;7.90;;;7.40;;
4808;SDS011;2418;49.930;8.606;2023-06-10T08:27:41;8.30;;;7.60;;
4808;SDS011;2418;49.930;8.606;2023-06-10T08:30:07;7.15;;;6.68;;
4808;SDS011;2418;49.930;8.606;2023-06-10T08:32:35;7.53;;;7.00;;
4808;SDS011;2418;49.930;8.606;2023-06-10T08:35:01;7.13;;;6.73;;
4808;SDS011;2418;49.930;8.606;2023-06-10T08:37:27;7.70;;;7.05;;
4808;SDS011;2418;49.930;8.606;2023-06-10T08:39:53;7.67;;;7.00;;
4808;SDS011;2418;49.930;8.606;2023-06-10T08:44:46;7.85;;;7.25;;
4808;SDS011;2418;49.930;8.606;2023-06-10T08:49:46;7.63;;;7.03;;
4808;SDS011;2418;49.930;8.606;2023-06-10T08:52:16;7.90;;;7.30;;
4808;SDS011;2418;49.930;8.606;2023-06-10T08:54:43;7.40;;;6.90;;
4808;SDS011;2418;49.930;8.606;2023-06-10T08:57:09;8.40;;;7.70;;
4808;SDS011;2418;49.930;8.606;2023-06-10T08:59:36;8.03;;;7.33;;
4808;SDS011;2418;49.930;8.606;2023-06-10T09:02:02;7.80;;;7.10;;
4808;SDS011;2418;49.930;8.606;2023-06-10T09:04:29;10.30;;;7.70;;
4808;SDS011;2418;49.930;8.606;2023-06-10T09:06:55;6.68;;;6.38;;
4808;SDS011;2418;49.930;8.606;2023-06-10T09:09:22;8.52;;;7.82;;
4808;SDS011;2418;49.930;8.606;2023-06-10T09:11:48;9.02;;;8.23;;
4808;SDS011;2418;49.930;8.606;2023-06-10T09:14:14;7.63;;;7.03;;
4808;SDS011;2418;49.930;8.606;2023-06-10T09:16:41;7.18;;;6.60;;
4808;SDS011;2418;49.930;8.606;2023-06-10T09:19:07;7.20;;;6.80;;
4808;SDS011;2418;49.930;8.606;2023-06-10T09:21:34;7.23;;;6.83;;
4808;SDS011;2418;49.930;8.606;2023-06-10T09:24:00;8.65;;;7.90;;
4808;SDS011;2418;49.930;8.606;2023-06-10T09:26:30;6.90;;;6.50;;
4808;SDS011;2418;49.930;8.606;2023-06-10T09:29:02;7.63;;;7.10;;
4808;SDS011;2418;49.930;8.606;2023-06-10T09:31:29;8.30;;;7.80;;
4808;SDS011;2418;49.930;8.606;2023-06-10T09:34:04;7.22;;;6.93;;
4808;SDS011;2418;49.930;8.606;2023-06-10T09:36:30;7.50;;;7.10;;
4808;SDS011;2418;49.930;8.606;2023-06-10T09:38:56;11.65;;;7.28;;
4808;SDS011;2418;49.930;8.606;2023-06-10T09:41:27;8.30;;;7.38;;
4808;SDS011;2418;49.930;8.606;2023-06-10T09:43:57;7.75;;;6.70;;
4808;SDS011;2418;49.930;8.606;2023-06-10T09:46:23;7.10;;;6.50;;
4808;SDS011;2418;49.930;8.606;2023-06-10T09:48:49;6.70;;;6.40;;
4808;SDS011;2418;49.930;8.606;2023-06-10T09:51:15;7.03;;;6.63;;
4808;SDS011;2418;49.930;8.606;2023-06-10T09:53:42;8.05;;;7.03;;
4808;SDS011;2418;49.930;8.606;2023-06-10T09:56:08;7.03;;;6.70;;
4808;SDS011;2418;49.930;8.606;2023-06-10T09:58:34;8.50;;;7.80;;
4808;SDS011;2418;49.930;8.606;2023-06-10T10:01:04;7.78;;;7.18;;
4808;SDS011;2418;49.930;8.606;2023-06-10T10:03:30;7.00;;;6.63;;
4808;SDS011;2418;49.930;8.606;2023-06-10T10:05:59;7.37;;;6.97;;
4808;SDS011;2418;49.930;8.606;2023-06-10T10:08:26;6.97;;;6.47;;
4808;SDS011;2418;49.930;8.606;2023-06-10T10:10:52;7.30;;;6.80;;
4808;SDS011;2418;49.930;8.606;2023-06-10T10:13:18;7.20;;;6.70;;
4808;SDS011;2418;49.930;8.606;2023-06-10T10:15:44;7.53;;;7.13;;
4808;SDS011;2418;49.930;8.606;2023-06-10T10:18:11;7.50;;;6.80;;
4808;SDS011;2418;49.930;8.606;2023-06-10T10:20:46;6.60;;;6.20;;
4808;SDS011;2418;49.930;8.606;2023-06-10T10:23:12;7.43;;;6.93;;
4808;SDS011;2418;49.930;8.606;2023-06-10T10:25:41;6.90;;;6.50;;
4808;SDS011;2418;49.930;8.606;2023-06-10T10:28:09;6.80;;;6.40;;
4808;SDS011;2418;49.930;8.606;2023-06-10T10:30:58;6.90;;;6.40;;
4808;SDS011;2418;49.930;8.606;2023-06-10T10:33:22;6.93;;;6.60;;
4808;SDS011;2418;49.930;8.606;2023-06-10T10:35:53;6.13;;;5.65;;
4808;SDS011;2418;49.930;8.606;2023-06-10T10:38:20;6.30;;;6.00;;
4808;SDS011;2418;49.930;8.606;2023-06-10T10:40:47;6.10;;;5.80;;
4808;SDS011;2418;49.930;8.606;2023-06-10T10:43:13;5.10;;;4.90;;
4808;SDS011;2418;49.930;8.606;2023-06-10T10:45:40;5.50;;;5.30;;
4808;SDS011;2418;49.930;8.606;2023-06-10T10:48:07;5.30;;;5.00;;
4808;SDS011;2418;49.930;8.606;2023-06-10T10:50:36;6.05;;;5.65;;
4808;SDS011;2418;49.930;8.606;2023-06-10T10:53:03;5.57;;;5.28;;
4808;SDS011;2418;49.930;8.606;2023-06-10T10:55:29;5.60;;;5.10;;
4808;SDS011;2418;49.930;8.606;2023-06-10T10:58:06;6.25;;;5.88;;
4808;SDS011;2418;49.930;8.606;2023-06-10T11:00:33;6.20;;;5.70;;
4808;SDS011;2418;49.930;8.606;2023-06-10T11:03:22;8.20;;;5.40;;
4808;SDS011;2418;49.930;8.606;2023-06-10T11:05:48;5.90;;;5.60;;
4808;SDS011;2418;49.930;8.606;2023-06-10T11:08:15;5.97;;;5.60;;
4808;SDS011;2418;49.930;8.606;2023-06-10T11:10:42;6.00;;;5.50;;
4808;SDS011;2418;49.930;8.606;2023-06-10T11:13:18;5.30;;;5.10;;
4808;SDS011;2418;49.930;8.606;2023-06-10T11:15:46;5.20;;;4.90;;
4808;SDS011;2418;49.930;8.606;2023-06-10T11:18:24;5.60;;;5.20;;
4808;SDS011;2418;49.930;8.606;2023-06-10T11:20:51;5.20;;;4.70;;
4808;SDS011;2418;49.930;8.606;2023-06-10T11:23:26;5.13;;;4.82;;
4808;SDS011;2418;49.930;8.606;2023-06-10T11:28:43;4.57;;;4.27;;
4808;SDS011;2418;49.930;8.606;2023-06-10T11:31:28;4.30;;;4.00;;
4808;SDS011;2418;49.930;8.606;2023-06-10T11:34:12;4.20;;;4.10;;
4808;SDS011;2418;49.930;8.606;2023-06-10T11:36:40;4.65;;;4.45;;
4808;SDS011;2418;49.930;8.606;2023-06-10T11:39:07;4.78;;;4.47;;
4808;SDS011;2418;49.930;8.606;2023-06-10T11:41:34;4.13;;;4.03;;
4808;SDS011;2418;49.930;8.606;2023-06-10T11:44:03;4.05;;;3.95;;
4808;SDS011;2418;49.930;8.606;2023-06-10T11:46:29;3.60;;;3.40;;
4808;SDS011;2418;49.930;8.606;2023-06-10T11:48:56;3.40;;;3.20;;
4808;SDS011;2418;49.930;8.606;2023-06-10T11:51:33;3.47;;;3.28;;
4808;SDS011;2418;49.930;8.606;2023-06-10T11:54:00;3.35;;;3.25;;
4808;SDS011;2418;49.930;8.606;2023-06-10T11:56:27;3.40;;;3.20;;
4808;SDS011;2418;49.930;8.606;2023-06-10T11:58:54;3.42;;;3.33;;
4808;SDS011;2418;49.930;8.606;2023-06-10T12:01:21;4.22;;;3.85;;
4808;SDS011;2418;49.930;8.606;2023-06-10T12:03:47;3.60;;;3.50;;
4808;SDS011;2418;49.930;8.606;2023-06-10T12:06:13;3.88;;;3.67;;
4808;SDS011;2418;49.930;8.606;2023-06-10T12:08:43;3.65;;;3.55;;
4808;SDS011;2418;49.930;8.606;2023-06-10T12:11:09;3.33;;;3.23;;
4808;SDS011;2418;49.930;8.606;2023-06-10T12:13:35;3.50;;;3.40;;
4808;SDS011;2418;49.930;8.606;2023-06-10T12:16:08;3.60;;;3.38;;
4808;SDS011;2418;49.930;8.606;2023-06-10T12:18:34;3.88;;;3.78;;
4808;SDS011;2418;49.930;8.606;2023-06-10T12:21:00;3.70;;;3.30;;
4808;SDS011;2418;49.930;8.606;2023-06-10T12:23:28;4.30;;;3.50;;
4808;SDS011;2418;49.930;8.606;2023-06-10T12:25:55;3.22;;;3.13;;
4808;SDS011;2418;49.930;8.606;2023-06-10T12:28:22;3.60;;;3.40;;
4808;SDS011;2418;49.930;8.606;2023-06-10T12:30:48;3.60;;;3.50;;
4808;SDS011;2418;49.930;8.606;2023-06-10T12:35:53;3.60;;;3.40;;
4808;SDS011;2418;49.930;8.606;2023-06-10T12:38:22;4.32;;;3.95;;
4808;SDS011;2418;49.930;8.606;2023-06-10T12:40:49;3.03;;;2.93;;
4808;SDS011;2418;49.930;8.606;2023-06-10T12:43:19;3.35;;;3.25;;
4808;SDS011;2418;49.930;8.606;2023-06-10T12:45:45;4.20;;;3.80;;
4808;SDS011;2418;49.930;8.606;2023-06-10T12:48:18;3.97;;;3.85;;
4808;SDS011;2418;49.930;8.606;2023-06-10T12:50:49;4.05;;;3.95;;
4808;SDS011;2418;49.930;8.606;2023-06-10T12:53:15;3.75;;;3.55;;
4808;SDS011;2418;49.930;8.606;2023-06-10T12:55:41;4.00;;;3.90;;
4808;SDS011;2418;49.930;8.606;2023-06-10T12:58:10;3.70;;;3.60;;
4808;SDS011;2418;49.930;8.606;2023-06-10T13:00:36;4.43;;;4.23;;
4808;SDS011;2418;49.930;8.606;2023-06-10T13:03:02;3.90;;;3.80;;
4808;SDS011;2418;49.930;8.606;2023-06-10T13:05:30;4.15;;;3.70;;
4808;SDS011;2418;49.930;8.606;2023-06-10T13:07:56;3.88;;;3.70;;
4808;SDS011;2418;49.930;8.606;2023-06-10T13:10:22;4.20;;;4.10;;
4808;SDS011;2418;49.930;8.606;2023-06-10T13:12:48;3.70;;;3.47;;
4808;SDS011;2418;49.930;8.606;2023-06-10T13:15:14;5.55;;;3.88;;
4808;SDS011;2418;49.930;8.606;2023-06-10T13:17:41;4.20;;;4.10;;
4808;SDS011;2418;49.930;8.606;2023-06-10T13:20:08;3.67;;;3.50;;
4808;SDS011;2418;49.930;8.606;2023-06-10T13:22:34;3.80;;;3.70;;
4808;SDS011;2418;49.930;8.606;2023-06-10T13:25:02;3.95;;;3.85;;
4808;SDS011;2418;49.930;8.606;2023-06-10T13:27:28;4.05;;;3.75;;
4808;SDS011;2418;49.930;8.606;2023-06-10T13:29:54;4.50;;;4.30;;
4808;SDS011;2418;49.930;8.606;2023-06-10T13:32:20;15.98;;;10.98;;
4808;SDS011;2418;49.930;8.606;2023-06-10T13:34:46;3.95;;;3.85;;
4808;SDS011;2418;49.930;8.606;2023-06-10T13:37:12;4.80;;;4.40;;
4808;SDS011;2418;49.930;8.606;2023-06-10T13:39:38;4.97;;;4.55;;
4808;SDS011;2418;49.930;8.606;2023-06-10T13:42:04;4.95;;;4.55;;
4808;SDS011;2418;49.930;8.606;2023-06-10T13:44:32;4.55;;;4.30;;
4808;SDS011;2418;49.930;8.606;2023-06-10T13:47:02;3.80;;;3.70;;
4808;SDS011;2418;49.930;8.606;2023-06-10T13:49:28;4.03;;;3.72;;
4808;SDS011;2418;49.930;8.606;2023-06-10T13:51:54;3.72;;;3.53;;
4808;SDS011;2418;49.930;8.606;2023-06-10T13:54:20;4.50;;;4.10;;
4808;SDS011;2418;49.930;8.606;2023-06-10T13:56:46;4.47;;;4.20;;
4808;SDS011;2418;49.930;8.606;2023-06-10T13:59:12;4.70;;;4.50;;
4808;SDS011;2418;49.930;8.606;2023-06-10T14:01:38;4.50;;;4.40;;
4808;SDS011;2418;49.930;8.606;2023-06-10T14:04:05;4.50;;;4.20;;
4808;SDS011;2418;49.930;8.606;2023-06-10T14:06:31;4.40;;;4.20;;
4808;SDS011;2418;49.930;8.606;2023-06-10T14:08:58;4.97;;;4.78;;
4808;SDS011;2418;49.930;8.606;2023-06-10T14:11:24;5.10;;;4.80;;
4808;SDS011;2418;49.930;8.606;2023-06-10T14:13:50;5.00;;;4.80;;
4808;SDS011;2418;49.930;8.606;2023-06-10T14:16:18;5.15;;;4.97;;
4808;SDS011;2418;49.930;8.606;2023-06-10T14:18:44;6.10;;;5.50;;
4808;SDS011;2418;49.930;8.606;2023-06-10T14:21:12;7.20;;;6.57;;
4808;SDS011;2418;49.930;8.606;2023-06-10T14:23:40;7.30;;;6.70;;
4808;SDS011;2418;49.930;8.606;2023-06-10T14:26:06;6.95;;;6.45;;
4808;SDS011;2418;49.930;8.606;2023-06-10T14:28:32;6.05;;;5.47;;
4808;SDS011;2418;49.930;8.606;2023-06-10T14:30:58;5.18;;;4.78;;
4808;SDS011;2418;49.930;8.606;2023-06-10T14:33:24;4.72;;;4.63;;
4808;SDS011;2418;49.930;8.606;2023-06-10T14:35:51;4.93;;;4.72;;
4808;SDS011;2418;49.930;8.606;2023-06-10T14:38:24;4.88;;;4.78;;
4808;SDS011;2418;49.930;8.606;2023-06-10T14:40:51;4.38;;;4.28;;
4808;SDS011;2418;49.930;8.606;2023-06-10T14:43:17;4.68;;;4.38;;
4808;SDS011;2418;49.930;8.606;2023-06-10T14:45:43;4.95;;;4.75;;
4808;SDS011;2418;49.930;8.606;2023-06-10T14:48:10;5.50;;;4.27;;
4808;SDS011;2418;49.930;8.606;2023-06-10T14:50:37;4.38;;;4.07;;
4808;SDS011;2418;49.930;8.606;2023-06-10T14:53:05;4.22;;;3.95;;
4808;SDS011;2418;49.930;8.606;2023-06-10T14:55:31;4.03;;;3.80;;
4808;SDS011;2418;49.930;8.606;2023-06-10T14:57:57;6.65;;;6.15;;
4808;SDS011;2418;49.930;8.606;2023-06-10T15:00:23;4.13;;;3.72;;
4808;SDS011;2418;49.930;8.606;2023-06-10T15:02:50;4.18;;;4.07;;
4808;SDS011;2418;49.930;8.606;2023-06-10T15:05:17;3.63;;;3.63;;
4808;SDS011;2418;49.930;8.606;2023-06-10T15:07:48;4.13;;;3.93;;
4808;SDS011;2418;49.930;8.606;2023-06-10T15:10:15;4.50;;;4.20;;
4808;SDS011;2418;49.930;8.606;2023-06-10T15:12:42;4.73;;;4.43;;
4808;SDS011;2418;49.930;8.606;2023-06-10T15:15:08;4.65;;;4.40;;
4808;SDS011;2418;49.930;8.606;2023-06-10T15:17:34;5.43;;;5.13;;
4808;SDS011;2418;49.930;8.606;2023-06-10T15:20:00;5.37;;;4.97;;
4808;SDS011;2418;49.930;8.606;2023-06-10T15:22:26;4.82;;;4.65;;